Time;durP1;ratioP1;P1;durP2;ratioP2;P2;SDS_P1;SDS_P2;PMS_P1;PMS_P2;Temp;Humidity;BMP_temperature;BMP_pressure;BME280_temperature;BME280_humidity;BME280_pressure;Samples;Min_cycle;Max_cycle;Signal;HPM_P1;HPM_P2
2022/12/08 00:02:23;;;;;;;0.20;0.20;;;4.70;99.90;;;;;;5031280;28;20216;-91
2022/12/08 00:10:21;;;;;;;0.30;0.30;;;4.80;99.90;;;;;;5031462;28;20219;-94
2022/12/08 00:12:46;;;;;;;1.03;1.03;;;4.80;99.90;;;;;;5029094;28;20229;-92
2022/12/08 00:15:12;;;;;;;0.40;0.40;;;4.70;99.90;;;;;;5026978;28;20577;-92
2022/12/08 00:17:38;;;;;;;0.20;0.20;;;4.80;99.90;;;;;;5043821;28;20357;-90
2022/12/08 00:20:04;;;;;;;0.20;0.20;;;4.70;99.90;;;;;;5028327;28;20194;-89
2022/12/08 00:22:31;;;;;;;0.20;0.20;;;4.70;99.90;;;;;;5028423;28;20364;-92
2022/12/08 00:24:57;;;;;;;0.30;0.30;;;4.70;99.90;;;;;;5037214;28;20215;-91
2022/12/08 00:27:22;;;;;;;0.20;0.20;;;4.70;99.90;;;;;;5027681;28;20564;-92
2022/12/08 00:29:48;;;;;;;0.20;0.20;;;4.70;99.90;;;;;;5027866;28;20360;-93
2022/12/08 00:32:14;;;;;;;0.30;0.30;;;4.80;99.90;;;;;;5001747;28;20292;-91
2022/12/08 00:34:40;;;;;;;0.20;0.20;;;4.80;99.90;;;;;;5027967;28;20249;-93
2022/12/08 00:37:05;;;;;;;0.20;0.20;;;4.90;99.90;;;;;;5033236;28;20234;-90
2022/12/08 00:39:31;;;;;;;0.20;0.20;;;4.90;99.90;;;;;;5035175;28;20822;-89
2022/12/08 00:42:12;;;;;;;0.20;0.20;;;4.90;99.90;;;;;;5018470;28;20214;-90
2022/12/08 00:44:39;;;;;;;0.20;0.20;;;4.90;99.90;;;;;;5027848;28;21053;-91
2022/12/08 00:47:05;;;;;;;0.30;0.30;;;4.90;99.90;;;;;;5025877;28;20218;-89
2022/12/08 00:49:30;;;;;;;0.20;0.20;;;4.80;99.90;;;;;;5043574;28;20288;-92
2022/12/08 00:51:56;;;;;;;0.20;0.20;;;4.80;99.90;;;;;;5019078;28;20214;-90
2022/12/08 00:54:22;;;;;;;0.20;0.20;;;4.80;99.90;;;;;;5026648;28;20261;-91
2022/12/08 00:56:48;;;;;;;0.30;0.30;;;4.70;99.90;;;;;;4982251;28;1305667;-91
2022/12/08 00:59:14;;;;;;;0.30;0.30;;;4.70;99.90;;;;;;5035120;28;20209;-89
2022/12/08 01:01:42;;;;;;;0.30;0.30;;;4.60;99.90;;;;;;5011923;28;20564;-90
2022/12/08 01:04:11;;;;;;;0.20;0.20;;;4.50;99.90;;;;;;5027216;28;20219;-94
2022/12/08 01:06:38;;;;;;;0.23;0.23;;;4.50;99.90;;;;;;5028294;28;20288;-93
2022/12/08 01:09:05;;;;;;;0.30;0.30;;;4.40;99.90;;;;;;5034794;28;20210;-90
2022/12/08 01:11:32;;;;;;;0.20;0.20;;;4.40;99.90;;;;;;5027338;28;20218;-90
2022/12/08 01:13:57;;;;;;;0.30;0.30;;;4.30;99.90;;;;;;5029129;28;20190;-92
2022/12/08 01:16:26;;;;;;;0.30;0.30;;;4.30;99.90;;;;;;5027057;28;20226;-91
2022/12/08 01:18:53;;;;;;;0.30;0.30;;;4.30;99.90;;;;;;5027176;28;20219;-92
2022/12/08 01:21:18;;;;;;;0.20;0.20;;;4.40;99.90;;;;;;5028217;28;20257;-93
2022/12/08 01:23:45;;;;;;;0.23;0.23;;;4.40;99.90;;;;;;5026675;28;21170;-90
2022/12/08 01:26:13;;;;;;;2.10;0.57;;;4.40;99.90;;;;;;5028346;28;20226;-93
2022/12/08 01:28:40;;;;;;;0.20;0.20;;;4.40;99.90;;;;;;5028396;28;20552;-92
2022/12/08 01:31:16;;;;;;;0.30;0.30;;;4.40;99.90;;;;;;5026765;28;20218;-86
2022/12/08 01:33:42;;;;;;;0.30;0.30;;;4.40;99.90;;;;;;5026887;28;20218;-90
2022/12/08 01:36:38;;;;;;;0.30;0.30;;;4.50;99.90;;;;;;5043126;28;20238;-90
2022/12/08 01:39:06;;;;;;;0.30;0.30;;;4.50;99.90;;;;;;5026087;28;20346;-93
2022/12/08 01:41:34;;;;;;;0.20;0.20;;;4.50;99.90;;;;;;5043337;28;20232;-90
2022/12/08 01:44:03;;;;;;;0.30;0.30;;;4.60;99.90;;;;;;5026856;28;20253;-92
2022/12/08 01:46:31;;;;;;;0.60;0.60;;;4.60;99.90;;;;;;5026512;28;21170;-92
2022/12/08 01:49:19;;;;;;;0.47;0.47;;;4.60;99.90;;;;;;5042830;28;20215;-92
2022/12/08 01:52:07;;;;;;;0.30;0.30;;;4.60;99.90;;;;;;5029732;28;20559;-92
2022/12/08 01:54:39;;;;;;;0.30;0.30;;;4.50;99.90;;;;;;5013252;28;20277;-92
2022/12/08 01:57:13;;;;;;;0.40;0.40;;;4.30;99.90;;;;;;5029739;28;20234;-90
2022/12/08 01:59:43;;;;;;;0.20;0.20;;;4.30;99.90;;;;;;5029301;28;20681;-96
2022/12/08 02:02:11;;;;;;;0.30;0.30;;;4.30;99.90;;;;;;5031110;28;20178;-94
2022/12/08 02:04:37;;;;;;;0.30;0.30;;;4.50;99.90;;;;;;5022591;28;20667;-92
2022/12/08 02:07:05;;;;;;;0.20;0.20;;;4.50;99.90;;;;;;5029272;28;20253;-92
2022/12/08 02:09:32;;;;;;;0.87;0.87;;;4.50;99.90;;;;;;5026106;28;20222;-90
2022/12/08 02:11:59;;;;;;;0.40;0.40;;;4.60;99.90;;;;;;5033270;28;20229;-92
2022/12/08 02:14:24;;;;;;;0.30;0.30;;;4.60;99.90;;;;;;5018458;28;20199;-92
2022/12/08 02:17:07;;;;;;;0.30;0.30;;;4.60;99.90;;;;;;5027747;28;20259;-92
2022/12/08 02:19:45;;;;;;;0.20;0.20;;;4.60;99.90;;;;;;5027828;28;20304;-91
2022/12/08 02:22:28;;;;;;;0.20;0.20;;;4.50;99.90;;;;;;5026969;28;20225;-92
2022/12/08 02:25:03;;;;;;;0.27;0.27;;;4.50;99.90;;;;;;5025893;28;20222;-90
2022/12/08 02:27:34;;;;;;;0.30;0.30;;;4.60;99.90;;;;;;5027169;28;20218;-91
2022/12/08 02:30:19;;;;;;;1.90;1.33;;;4.60;99.90;;;;;;5017529;28;20222;-91
2022/12/08 02:33:30;;;;;;;2.50;0.77;;;4.60;99.90;;;;;;5026434;28;20226;-92
2022/12/08 02:36:17;;;;;;;0.30;0.30;;;4.50;99.90;;;;;;4984673;28;20224;-91
2022/12/08 02:39:13;;;;;;;0.20;0.20;;;4.30;99.90;;;;;;4984761;28;20227;-91
2022/12/08 02:41:52;;;;;;;0.20;0.20;;;4.10;99.90;;;;;;5019908;28;20233;-90
2022/12/08 02:44:39;;;;;;;0.20;0.20;;;4.10;99.90;;;;;;5025805;28;20187;-91
2022/12/08 02:47:10;;;;;;;0.30;0.30;;;4.00;99.90;;;;;;5034254;28;20186;-90
2022/12/08 02:49:36;;;;;;;0.30;0.30;;;4.10;99.90;;;;;;5026691;28;20218;-91
2022/12/08 02:52:11;;;;;;;0.30;0.30;;;4.00;99.90;;;;;;5026898;28;21028;-89
2022/12/08 02:54:38;;;;;;;0.20;0.20;;;4.00;99.90;;;;;;5025907;28;20218;-89
2022/12/08 02:57:11;;;;;;;0.20;0.20;;;4.00;99.90;;;;;;5025852;28;20609;-90
2022/12/08 03:00:06;;;;;;;0.40;0.40;;;3.90;99.90;;;;;;5026679;28;20276;-89
2022/12/08 03:03:15;;;;;;;0.13;0.13;;;3.90;99.90;;;;;;5032742;28;20675;-90
2022/12/08 03:05:56;;;;;;;0.30;0.30;;;3.90;99.90;;;;;;5016168;28;20221;-90
2022/12/08 03:08:45;;;;;;;0.30;0.30;;;3.80;99.90;;;;;;5026293;28;20206;-91
2022/12/08 03:11:20;;;;;;;0.30;0.30;;;3.80;99.90;;;;;;5044738;28;20183;-91
2022/12/08 03:13:50;;;;;;;0.30;0.30;;;3.80;99.90;;;;;;5030341;28;20229;-90
2022/12/08 03:16:21;;;;;;;0.30;0.30;;;3.80;99.90;;;;;;5028904;28;20237;-91
2022/12/08 03:18:53;;;;;;;0.20;0.20;;;3.80;99.90;;;;;;5031188;28;20757;-90
2022/12/08 03:21:20;;;;;;;0.40;0.40;;;3.80;99.90;;;;;;5045622;28;20249;-89
2022/12/08 03:23:49;;;;;;;0.30;0.30;;;3.80;99.90;;;;;;5029216;28;20237;-91
2022/12/08 03:26:30;;;;;;;0.30;0.30;;;3.80;99.90;;;;;;5029369;28;20529;-91
2022/12/08 03:28:56;;;;;;;0.20;0.20;;;3.90;99.90;;;;;;5031199;28;20206;-91
2022/12/08 03:31:27;;;;;;;0.20;0.20;;;3.90;99.90;;;;;;5030437;28;20577;-91
2022/12/08 03:33:55;;;;;;;0.20;0.20;;;3.90;99.90;;;;;;5030100;28;20226;-91
2022/12/08 03:36:22;;;;;;;0.20;0.20;;;3.90;99.90;;;;;;5037826;28;20231;-91
2022/12/08 03:38:51;;;;;;;0.30;0.30;;;3.90;99.90;;;;;;5030155;28;20222;-91
2022/12/08 03:41:18;;;;;;;0.30;0.30;;;4.00;99.90;;;;;;5029506;28;20508;-91
2022/12/08 03:43:52;;;;;;;0.30;0.30;;;3.90;99.90;;;;;;5031184;28;20183;-89
2022/12/08 03:46:20;;;;;;;0.20;0.20;;;4.00;99.90;;;;;;5028426;28;20264;-91
2022/12/08 03:48:46;;;;;;;0.30;0.30;;;4.00;99.90;;;;;;5029689;28;20230;-92
2022/12/08 03:51:13;;;;;;;0.20;0.20;;;4.10;99.90;;;;;;5012407;28;20222;-91
2022/12/08 03:53:39;;;;;;;0.20;0.20;;;4.10;99.90;;;;;;5012226;28;20214;-91
2022/12/08 03:56:20;;;;;;;0.20;0.20;;;4.20;99.90;;;;;;5029728;28;20552;-91
2022/12/08 03:58:46;;;;;;;0.50;0.50;;;4.40;99.90;;;;;;5045943;28;20245;-90
2022/12/08 04:01:12;;;;;;;0.30;0.30;;;4.40;99.90;;;;;;5029360;28;20370;-91
2022/12/08 04:03:37;;;;;;;0.27;0.27;;;4.40;99.90;;;;;;5028424;28;21072;-91
2022/12/08 04:06:04;;;;;;;0.30;0.30;;;4.40;99.90;;;;;;5012065;28;21025;-90
2022/12/08 04:08:29;;;;;;;0.30;0.30;;;4.50;99.90;;;;;;5028730;28;20214;-92
2022/12/08 04:10:55;;;;;;;0.20;0.20;;;4.50;99.90;;;;;;5029024;28;20190;-89
2022/12/08 04:13:21;;;;;;;0.30;0.30;;;4.60;99.90;;;;;;5011726;28;20245;-91
2022/12/08 04:15:47;;;;;;;0.83;0.60;;;4.40;99.90;;;;;;5020695;28;20222;-90
2022/12/08 04:18:13;;;;;;;0.30;0.30;;;4.40;99.90;;;;;;5029306;28;21089;-90
2022/12/08 04:20:44;;;;;;;0.50;0.50;;;4.40;99.90;;;;;;5029435;28;20207;-88
2022/12/08 04:23:10;;;;;;;0.30;0.30;;;4.40;99.90;;;;;;5029558;28;20203;-92
2022/12/08 04:25:37;;;;;;;0.27;0.27;;;4.50;99.90;;;;;;5028359;28;20259;-91
2022/12/08 04:28:04;;;;;;;0.30;0.30;;;4.50;99.90;;;;;;5029130;28;20222;-90
2022/12/08 04:30:30;;;;;;;0.30;0.30;;;4.50;99.90;;;;;;5044191;28;20245;-90
2022/12/08 04:32:56;;;;;;;0.73;0.73;;;4.50;99.90;;;;;;5011270;28;20226;-90
2022/12/08 04:35:22;;;;;;;0.20;0.20;;;4.50;99.90;;;;;;5029379;28;20229;-91
2022/12/08 04:37:47;;;;;;;0.20;0.20;;;4.40;99.90;;;;;;5037556;28;20206;-90
2022/12/08 04:40:13;;;;;;;2.53;1.33;;;4.40;99.90;;;;;;5027912;28;20713;-91
2022/12/08 04:42:39;;;;;;;0.30;0.30;;;4.40;99.90;;;;;;5028684;28;20396;-91
2022/12/08 04:45:06;;;;;;;0.40;0.40;;;4.40;99.90;;;;;;5029069;28;20591;-91
2022/12/08 04:47:32;;;;;;;0.20;0.20;;;4.40;99.90;;;;;;5027799;28;20229;-91
2022/12/08 04:49:57;;;;;;;0.20;0.20;;;4.30;99.90;;;;;;5036374;28;20544;-91
2022/12/08 04:52:23;;;;;;;0.20;0.20;;;4.30;99.90;;;;;;5011052;28;20316;-91
2022/12/08 04:54:49;;;;;;;0.20;0.20;;;4.20;99.90;;;;;;5027581;28;20229;-91
2022/12/08 04:57:15;;;;;;;0.30;0.30;;;4.20;99.90;;;;;;5011049;28;20234;-91
2022/12/08 04:59:41;;;;;;;0.20;0.20;;;4.20;99.90;;;;;;5028755;28;20233;-91
2022/12/08 05:02:06;;;;;;;0.40;0.40;;;4.30;99.90;;;;;;5037091;28;20192;-90
2022/12/08 05:04:32;;;;;;;0.30;0.30;;;4.30;99.90;;;;;;5028139;28;20199;-91
2022/12/08 05:06:58;;;;;;;0.37;0.37;;;4.30;99.90;;;;;;5027330;28;20249;-90
2022/12/08 05:09:24;;;;;;;0.20;0.20;;;4.30;99.90;;;;;;5026388;28;20249;-90
2022/12/08 05:11:49;;;;;;;0.60;0.43;;;4.30;99.90;;;;;;5036704;28;20226;-91
2022/12/08 05:14:17;;;;;;;0.30;0.30;;;4.30;99.90;;;;;;5017892;28;20301;-90
2022/12/08 05:16:44;;;;;;;0.30;0.30;;;4.30;99.90;;;;;;5027443;28;20603;-90
2022/12/08 05:19:10;;;;;;;0.20;0.20;;;4.30;99.90;;;;;;5027446;28;20242;-90
2022/12/08 05:21:36;;;;;;;0.30;0.30;;;4.30;99.90;;;;;;5043238;28;20253;-90
2022/12/08 05:24:02;;;;;;;0.20;0.20;;;4.20;99.90;;;;;;5034720;28;20245;-90
2022/12/08 05:26:28;;;;;;;0.30;0.30;;;4.10;99.90;;;;;;5027238;28;21075;-92
2022/12/08 05:28:54;;;;;;;0.30;0.30;;;4.10;99.90;;;;;;5035807;28;20187;-91
2022/12/08 05:31:19;;;;;;;0.30;0.30;;;4.30;99.90;;;;;;5025482;28;20214;-91
2022/12/08 05:33:45;;;;;;;0.30;0.30;;;4.40;99.90;;;;;;5025160;28;21055;-91
2022/12/08 05:36:13;;;;;;;0.30;0.30;;;4.40;99.90;;;;;;5025559;28;20318;-91
2022/12/08 05:38:39;;;;;;;0.30;0.30;;;4.40;99.90;;;;;;5028057;28;20232;-93
2022/12/08 05:41:12;;;;;;;2.40;2.20;;;4.40;99.90;;;;;;5032006;28;20210;-87
2022/12/08 05:43:37;;;;;;;0.30;0.30;;;4.40;99.90;;;;;;5047655;28;20225;-92
2022/12/08 05:46:04;;;;;;;0.23;0.23;;;4.40;99.90;;;;;;5040465;28;20226;-92
2022/12/08 05:48:30;;;;;;;0.30;0.30;;;4.40;99.90;;;;;;5005671;28;20210;-92
2022/12/08 05:50:56;;;;;;;0.10;0.10;;;4.30;99.90;;;;;;5029954;28;20229;-92
2022/12/08 05:53:21;;;;;;;0.30;0.30;;;4.30;99.90;;;;;;5030271;28;20199;-92
2022/12/08 05:55:47;;;;;;;0.20;0.20;;;4.20;99.90;;;;;;5044378;28;21074;-90
2022/12/08 05:58:19;;;;;;;0.20;0.20;;;4.00;99.90;;;;;;5027214;28;20226;-89
2022/12/08 06:00:45;;;;;;;18.23;0.77;;;4.00;99.90;;;;;;5027653;28;20738;-91
2022/12/08 06:03:12;;;;;;;0.37;0.37;;;4.10;99.90;;;;;;5027619;28;20268;-89
2022/12/08 06:05:40;;;;;;;0.20;0.20;;;4.10;99.90;;;;;;5032629;28;20223;-89
2022/12/08 06:08:06;;;;;;;1.23;1.13;;;4.10;99.90;;;;;;5026811;28;20643;-89
2022/12/08 06:10:32;;;;;;;0.10;0.10;;;4.10;99.90;;;;;;5026627;28;20215;-89
2022/12/08 06:12:57;;;;;;;0.40;0.40;;;4.10;99.90;;;;;;5027205;28;21156;-88
2022/12/08 06:15:23;;;;;;;11.73;1.17;;;4.10;99.90;;;;;;5042781;28;20223;-90
2022/12/08 06:17:49;;;;;;;0.30;0.30;;;4.00;99.90;;;;;;5026760;28;20238;-89
2022/12/08 06:20:14;;;;;;;0.40;0.40;;;4.00;99.90;;;;;;5027013;28;20205;-89
2022/12/08 06:22:40;;;;;;;0.40;0.40;;;4.00;99.90;;;;;;5017809;28;20252;-88
2022/12/08 06:25:06;;;;;;;1.03;1.03;;;4.00;99.90;;;;;;5025994;28;20258;-91
2022/12/08 06:27:32;;;;;;;0.30;0.30;;;4.00;99.90;;;;;;5034888;28;20223;-90
2022/12/08 06:29:58;;;;;;;1.70;1.13;;;4.00;99.90;;;;;;5026593;28;20269;-90
2022/12/08 06:32:25;;;;;;;0.63;0.63;;;3.90;99.90;;;;;;5026688;28;20281;-90
2022/12/08 06:34:51;;;;;;;0.27;0.27;;;3.80;99.90;;;;;;5027569;28;20197;-89
2022/12/08 06:37:17;;;;;;;0.27;0.27;;;3.70;99.90;;;;;;5026414;28;20231;-90
2022/12/08 06:39:43;;;;;;;0.30;0.30;;;3.70;99.90;;;;;;5017414;28;20257;-90
2022/12/08 06:44:53;;;;;;;0.23;0.23;;;3.50;99.90;;;;;;5032475;28;20222;-87
2022/12/08 06:47:22;;;;;;;0.93;0.93;;;3.50;99.90;;;;;;5042297;28;20542;-89
2022/12/08 06:49:48;;;;;;;0.40;0.40;;;3.40;99.90;;;;;;5026680;28;20186;-91
2022/12/08 06:52:14;;;;;;;0.20;0.20;;;3.40;99.90;;;;;;5008147;28;20699;-92
2022/12/08 06:54:39;;;;;;;1.90;0.43;;;3.40;99.90;;;;;;5022879;28;20210;-92
2022/12/08 06:57:06;;;;;;;3.10;0.90;;;3.40;99.90;;;;;;5039153;28;20241;-92
2022/12/08 06:59:31;;;;;;;0.30;0.30;;;3.40;99.90;;;;;;5038809;28;20229;-91
2022/12/08 07:01:57;;;;;;;0.30;0.30;;;3.50;99.90;;;;;;5040181;28;20180;-92
2022/12/08 07:04:23;;;;;;;0.30;0.30;;;3.50;99.90;;;;;;5039817;28;20210;-91
2022/12/08 07:06:49;;;;;;;0.30;0.30;;;3.50;99.90;;;;;;5034328;28;20222;-92
2022/12/08 07:09:14;;;;;;;0.30;0.30;;;3.50;99.90;;;;;;5041067;28;20313;-91
2022/12/08 07:11:40;;;;;;;0.30;0.30;;;3.40;99.90;;;;;;5017351;28;20708;-92
2022/12/08 07:14:06;;;;;;;0.30;0.30;;;3.40;99.90;;;;;;5025527;28;20194;-90
2022/12/08 07:16:32;;;;;;;4.10;0.60;;;3.40;99.90;;;;;;5017620;28;20214;-91
2022/12/08 07:18:59;;;;;;;1.60;1.50;;;3.30;99.90;;;;;;5026505;28;20310;-91
2022/12/08 07:21:25;;;;;;;0.30;0.30;;;3.30;99.90;;;;;;5041526;28;20684;-91
2022/12/08 07:23:51;;;;;;;0.20;0.20;;;3.40;99.90;;;;;;5025414;28;20233;-91
2022/12/08 07:26:16;;;;;;;0.37;0.37;;;3.30;99.90;;;;;;5026415;28;20244;-90
2022/12/08 07:28:43;;;;;;;0.93;0.93;;;3.20;99.90;;;;;;5033082;28;20241;-90
2022/12/08 07:31:19;;;;;;;0.30;0.30;;;3.10;99.90;;;;;;5026484;28;20242;-89
2022/12/08 07:33:46;;;;;;;0.20;0.20;;;3.10;99.90;;;;;;5026327;28;20659;-88
2022/12/08 07:36:12;;;;;;;0.23;0.23;;;3.10;99.90;;;;;;5042265;28;20249;-88
2022/12/08 07:38:38;;;;;;;0.30;0.30;;;3.00;99.90;;;;;;5025186;28;20305;-90
2022/12/08 07:41:04;;;;;;;0.33;0.33;;;3.00;99.90;;;;;;5026152;28;20593;-89
2022/12/08 07:43:30;;;;;;;0.30;0.30;;;3.00;99.90;;;;;;5027012;28;20226;-90
2022/12/08 07:45:56;;;;;;;0.30;0.30;;;3.00;99.90;;;;;;5027809;28;20223;-88
2022/12/08 07:48:21;;;;;;;0.20;0.20;;;3.10;99.90;;;;;;5007161;28;20226;-88
2022/12/08 07:50:47;;;;;;;16.43;1.23;;;3.10;99.90;;;;;;5034852;28;20703;-87
2022/12/08 07:53:13;;;;;;;0.37;0.37;;;3.10;99.90;;;;;;5014876;28;20189;-87
2022/12/08 07:55:43;;;;;;;0.20;0.20;;;3.10;99.90;;;;;;5033578;28;20191;-91
2022/12/08 07:58:10;;;;;;;0.30;0.30;;;3.10;99.90;;;;;;5028144;28;20234;-91
2022/12/08 08:00:36;;;;;;;0.30;0.30;;;3.20;99.90;;;;;;5028707;28;20288;-88
2022/12/08 08:03:02;;;;;;;0.30;0.30;;;3.30;99.90;;;;;;5021175;28;20309;-88
2022/12/08 08:05:27;;;;;;;0.30;0.30;;;3.30;99.90;;;;;;4991312;28;20649;-89
2022/12/08 08:07:53;;;;;;;0.30;0.30;;;3.20;99.90;;;;;;5016504;28;20268;-91
2022/12/08 08:10:19;;;;;;;0.30;0.30;;;3.10;99.90;;;;;;4991344;28;20227;-91
2022/12/08 08:12:45;;;;;;;0.50;0.50;;;3.10;99.90;;;;;;5016042;28;20314;-87
2022/12/08 08:15:11;;;;;;;0.27;0.27;;;3.20;99.90;;;;;;5007460;28;20326;-87
2022/12/08 08:17:37;;;;;;;0.20;0.20;;;3.20;99.90;;;;;;5004410;28;20715;-89
2022/12/08 08:20:07;;;;;;;0.23;0.23;;;3.30;99.90;;;;;;5012576;28;20192;-88
2022/12/08 08:22:33;;;;;;;0.87;0.87;;;3.30;99.90;;;;;;5024248;28;20215;-89
2022/12/08 08:24:58;;;;;;;0.23;0.23;;;3.40;99.90;;;;;;5026165;28;20234;-91
2022/12/08 08:27:25;;;;;;;0.20;0.20;;;3.50;99.90;;;;;;5026354;28;20623;-88
2022/12/08 08:29:52;;;;;;;0.40;0.40;;;3.60;99.90;;;;;;5032700;28;20547;-87
2022/12/08 08:32:17;;;;;;;0.30;0.30;;;3.60;99.90;;;;;;5027504;28;20191;-87
2022/12/08 08:34:43;;;;;;;0.50;0.50;;;3.70;99.90;;;;;;5043719;28;20197;-87
2022/12/08 08:37:09;;;;;;;0.30;0.30;;;3.70;99.90;;;;;;5035185;28;20412;-89
2022/12/08 08:39:35;;;;;;;0.20;0.20;;;3.80;99.90;;;;;;5026884;28;20267;-81
2022/12/08 08:42:01;;;;;;;0.20;0.20;;;3.80;99.90;;;;;;5000301;28;20230;-88
2022/12/08 08:44:27;;;;;;;3.10;0.83;;;3.80;99.90;;;;;;5024537;28;20223;-90
2022/12/08 08:46:52;;;;;;;0.30;0.30;;;3.80;99.90;;;;;;5035378;28;20193;-87
2022/12/08 08:49:18;;;;;;;0.47;0.40;;;3.80;99.90;;;;;;5049218;28;20986;-90
2022/12/08 08:51:45;;;;;;;0.63;0.33;;;3.80;99.90;;;;;;5027910;28;20219;-87
2022/12/08 08:54:10;;;;;;;1.53;0.87;;;3.80;99.90;;;;;;5032427;28;20622;-86
2022/12/08 08:56:36;;;;;;;0.20;0.20;;;3.80;99.90;;;;;;5038977;28;20230;-88
2022/12/08 08:59:02;;;;;;;0.30;0.30;;;3.80;99.90;;;;;;5031971;28;20206;-88
2022/12/08 09:01:28;;;;;;;0.30;0.30;;;3.80;99.90;;;;;;5042225;28;20690;-86
2022/12/08 09:03:55;;;;;;;0.30;0.30;;;3.90;99.90;;;;;;5025772;28;20332;-87
2022/12/08 09:06:21;;;;;;;0.30;0.30;;;3.90;99.90;;;;;;5029604;28;20218;-87
2022/12/08 09:08:48;;;;;;;0.37;0.37;;;3.90;99.90;;;;;;5023163;28;20242;-88
2022/12/08 09:11:14;;;;;;;1.57;0.50;;;4.00;99.90;;;;;;5024865;28;21002;-87
2022/12/08 09:13:40;;;;;;;0.73;0.73;;;4.00;99.90;;;;;;5025366;28;20194;-88
2022/12/08 09:16:07;;;;;;;0.27;0.27;;;4.10;99.90;;;;;;5025220;28;20253;-87
2022/12/08 09:18:33;;;;;;;7.90;0.83;;;4.20;99.90;;;;;;5025073;28;20273;-90
2022/12/08 09:21:15;;;;;;;0.50;0.50;;;4.20;99.90;;;;;;5025010;28;20237;-89
2022/12/08 09:23:42;;;;;;;0.30;0.30;;;4.20;99.90;;;;;;5024151;28;20221;-90
2022/12/08 09:26:08;;;;;;;0.27;0.27;;;4.20;99.90;;;;;;5024722;28;20194;-90
2022/12/08 09:28:34;;;;;;;0.20;0.20;;;4.30;99.90;;;;;;5025397;28;20191;-89
2022/12/08 09:31:00;;;;;;;0.30;0.30;;;4.40;99.90;;;;;;4999221;28;20755;-88
2022/12/08 09:33:26;;;;;;;0.30;0.30;;;4.50;99.90;;;;;;5022815;28;20630;-88
2022/12/08 09:35:52;;;;;;;0.47;0.47;;;4.40;99.90;;;;;;5023931;28;20228;-89
2022/12/08 09:38:17;;;;;;;1.23;0.87;;;4.50;99.90;;;;;;5014339;28;20231;-91
2022/12/08 09:40:53;;;;;;;0.60;0.60;;;4.70;99.90;;;;;;5023799;28;20190;-88
2022/12/08 09:43:44;;;;;;;1.13;1.13;;;4.80;99.90;;;;;;5042034;28;20233;-88
2022/12/08 09:46:16;;;;;;;0.33;0.33;;;4.90;99.90;;;;;;5027140;28;20218;-88
2022/12/08 09:48:54;;;;;;;0.20;0.20;;;5.10;99.90;;;;;;5042803;28;20257;-87
2022/12/08 09:51:24;;;;;;;0.30;0.30;;;5.00;99.90;;;;;;5017307;28;20583;-87
2022/12/08 09:54:20;;;;;;;0.30;0.30;;;5.00;99.90;;;;;;5027390;28;20228;-86
2022/12/08 09:56:48;;;;;;;0.73;0.73;;;4.90;99.90;;;;;;5025685;28;20242;-88
2022/12/08 09:59:16;;;;;;;0.20;0.20;;;4.90;99.90;;;;;;5036014;28;20191;-84
2022/12/08 10:01:42;;;;;;;0.20;0.20;;;4.70;99.90;;;;;;5028298;28;20198;-88
2022/12/08 10:04:28;;;;;;;0.50;0.50;;;4.70;99.90;;;;;;5033444;28;20226;-88
2022/12/08 10:07:08;;;;;;;0.40;0.40;;;4.80;99.90;;;;;;5027833;28;20222;-89
2022/12/08 10:09:40;;;;;;;0.67;0.37;;;5.00;99.90;;;;;;5027471;28;20245;-88
2022/12/08 10:12:18;;;;;;;0.33;0.33;;;5.20;99.90;;;;;;5027390;28;20256;-88
2022/12/08 10:15:05;;;;;;;0.50;0.50;;;5.50;99.90;;;;;;5027474;28;20680;-88
2022/12/08 10:17:36;;;;;;;0.80;0.80;;;5.80;99.90;;;;;;5027799;28;20314;-88
2022/12/08 10:20:15;;;;;;;1.90;1.07;;;6.00;99.90;;;;;;5029007;28;20178;-87
2022/12/08 10:22:42;;;;;;;8.00;0.83;;;6.10;99.90;;;;;;5026935;28;20226;-88
2022/12/08 10:25:19;;;;;;;0.20;0.20;;;6.20;99.90;;;;;;5026907;28;20219;-88
2022/12/08 10:27:48;;;;;;;0.20;0.20;;;6.00;99.90;;;;;;5027040;28;20224;-90
2022/12/08 10:30:17;;;;;;;0.40;0.40;;;6.00;99.90;;;;;;5019620;28;21035;-91
2022/12/08 10:32:48;;;;;;;0.30;0.30;;;6.00;99.90;;;;;;5028165;28;20301;-88
2022/12/08 10:35:16;;;;;;;0.20;0.20;;;5.80;99.90;;;;;;5027684;28;20240;-88
2022/12/08 10:37:57;;;;;;;0.30;0.30;;;5.60;99.90;;;;;;5027837;28;20280;-89
2022/12/08 10:40:26;;;;;;;1.17;1.17;;;5.60;99.90;;;;;;5030627;28;20222;-87
2022/12/08 10:42:54;;;;;;;0.30;0.30;;;5.30;99.90;;;;;;5031640;28;20278;-86
2022/12/08 10:45:40;;;;;;;0.30;0.30;;;5.20;99.90;;;;;;5032082;28;20272;-87
2022/12/08 10:48:11;;;;;;;0.30;0.30;;;5.10;99.90;;;;;;5029604;28;20223;-87
2022/12/08 10:50:54;;;;;;;0.30;0.30;;;5.20;99.90;;;;;;5040999;28;20225;-86
2022/12/08 10:53:28;;;;;;;0.20;0.20;;;5.20;99.90;;;;;;5031104;28;20228;-89
2022/12/08 10:55:57;;;;;;;0.30;0.30;;;5.20;99.90;;;;;;5031502;28;20265;-88
2022/12/08 10:58:34;;;;;;;0.30;0.30;;;5.10;99.90;;;;;;5028816;28;20242;-87
2022/12/08 11:01:08;;;;;;;0.20;0.20;;;5.20;99.90;;;;;;5030659;28;20609;-91
2022/12/08 11:03:42;;;;;;;0.30;0.30;;;5.20;99.90;;;;;;5043423;28;20212;-91
2022/12/08 11:06:16;;;;;;;1.03;1.03;;;5.20;99.90;;;;;;5032400;28;20214;-92
2022/12/08 11:08:54;;;;;;;0.53;0.53;;;5.20;99.90;;;;;;5026970;28;20210;-94
2022/12/08 11:11:21;;;;;;;0.30;0.30;;;5.10;99.90;;;;;;5025948;28;20218;-92
2022/12/08 11:13:50;;;;;;;0.23;0.23;;;5.10;99.90;;;;;;5026025;28;20253;-91
2022/12/08 11:16:18;;;;;;;0.20;0.20;;;5.20;99.90;;;;;;5017646;28;20297;-90
2022/12/08 11:18:53;;;;;;;0.20;0.20;;;5.10;99.90;;;;;;5035659;28;20214;-90
2022/12/08 11:21:19;;;;;;;0.20;0.20;;;5.20;99.90;;;;;;5028145;28;21097;-91
2022/12/08 11:23:49;;;;;;;0.23;0.23;;;5.30;99.90;;;;;;5021259;28;20219;-91
2022/12/08 11:26:31;;;;;;;3.43;0.53;;;5.40;99.90;;;;;;5027891;28;20264;-91
2022/12/08 11:28:57;;;;;;;0.30;0.30;;;5.40;99.90;;;;;;5028121;28;20190;-88
2022/12/08 11:31:42;;;;;;;1.13;0.63;;;5.50;99.90;;;;;;5029076;28;20214;-92
2022/12/08 11:34:26;;;;;;;0.20;0.20;;;5.60;99.90;;;;;;5037548;28;20233;-94
2022/12/08 11:36:54;;;;;;;0.60;0.60;;;5.60;99.90;;;;;;5028834;28;20229;-94
2022/12/08 11:39:21;;;;;;;0.30;0.30;;;5.60;99.90;;;;;;5031398;28;20771;-95
2022/12/08 11:41:48;;;;;;;4.60;0.47;;;5.60;99.90;;;;;;5030466;28;20276;-92
2022/12/08 11:44:37;;;;;;;0.30;0.30;;;5.60;99.90;;;;;;5045259;28;20229;-95
2022/12/08 11:47:12;;;;;;;0.30;0.30;;;5.60;99.90;;;;;;5030411;28;20179;-92
2022/12/08 11:49:41;;;;;;;0.30;0.30;;;5.60;99.90;;;;;;5046094;28;20202;-92
2022/12/08 11:52:18;;;;;;;0.50;0.50;;;5.50;99.90;;;;;;5054438;28;20219;-94
2022/12/08 11:54:58;;;;;;;0.50;0.50;;;5.40;99.90;;;;;;5043297;28;20214;-94
2022/12/08 11:57:26;;;;;;;0.30;0.30;;;5.40;99.90;;;;;;5048036;28;20253;-91
2022/12/08 11:59:54;;;;;;;0.37;0.37;;;5.50;99.90;;;;;;5050028;28;20226;-93
2022/12/08 12:02:24;;;;;;;0.30;0.30;;;5.50;99.90;;;;;;5032167;28;20731;-91
2022/12/08 12:05:05;;;;;;;0.20;0.20;;;5.60;99.90;;;;;;5032006;28;20614;-93
2022/12/08 12:07:58;;;;;;;0.23;0.23;;;5.70;99.90;;;;;;5032014;28;20261;-91
2022/12/08 12:10:46;;;;;;;0.27;0.27;;;5.70;99.90;;;;;;5023467;28;20215;-89
2022/12/08 12:13:44;;;;;;;0.50;0.50;;;5.70;99.90;;;;;;5047393;28;20694;-93
2022/12/08 12:16:50;;;;;;;0.27;0.27;;;5.70;99.90;;;;;;5032522;28;20629;-93
2022/12/08 12:19:19;;;;;;;0.30;0.30;;;5.70;99.90;;;;;;5031181;28;20233;-94
2022/12/08 12:21:53;;;;;;;0.20;0.20;;;5.70;99.90;;;;;;5032497;28;20222;-93
2022/12/08 12:24:23;;;;;;;0.40;0.40;;;5.70;99.90;;;;;;5031814;28;20213;-93
2022/12/08 12:27:05;;;;;;;0.20;0.20;;;5.60;99.90;;;;;;5029992;28;20732;-94
2022/12/08 12:29:35;;;;;;;0.87;0.43;;;5.60;99.90;;;;;;5045894;28;20576;-94
2022/12/08 12:32:11;;;;;;;0.30;0.30;;;5.50;99.90;;;;;;5046850;28;20194;-92
2022/12/08 12:34:54;;;;;;;0.40;0.40;;;5.40;99.90;;;;;;5029064;28;20263;-92
2022/12/08 12:37:33;;;;;;;0.20;0.20;;;5.30;99.90;;;;;;5030264;28;20214;-93
2022/12/08 12:40:04;;;;;;;0.70;0.53;;;5.50;99.90;;;;;;5045540;28;20644;-92
2022/12/08 12:42:34;;;;;;;0.40;0.40;;;5.50;99.90;;;;;;5030630;28;20222;-93
2022/12/08 12:45:21;;;;;;;0.70;0.70;;;5.50;99.90;;;;;;5028175;28;20249;-93
2022/12/08 12:47:56;;;;;;;0.30;0.30;;;5.60;99.90;;;;;;5044971;28;20680;-93
2022/12/08 12:50:31;;;;;;;0.60;0.60;;;5.60;99.90;;;;;;5029541;28;20190;-94
2022/12/08 12:53:24;;;;;;;0.47;0.47;;;5.80;99.90;;;;;;5035933;28;20221;-92
2022/12/08 12:55:58;;;;;;;0.40;0.40;;;6.00;99.90;;;;;;5043884;28;20226;-91
2022/12/08 12:58:27;;;;;;;0.43;0.43;;;6.20;99.90;;;;;;5027905;28;20629;-92
2022/12/08 13:01:11;;;;;;;0.77;0.77;;;6.20;99.90;;;;;;5020976;28;20249;-92
2022/12/08 13:04:06;;;;;;;0.83;0.83;;;6.20;99.90;;;;;;5029348;28;20249;-89
2022/12/08 13:06:52;;;;;;;0.30;0.30;;;6.10;99.90;;;;;;5047011;28;20226;-92
2022/12/08 13:09:29;;;;;;;0.53;0.53;;;6.00;99.90;;;;;;5030545;28;20264;-92
2022/12/08 13:11:59;;;;;;;0.50;0.50;;;6.00;99.90;;;;;;5027713;28;20218;-88
2022/12/08 13:14:31;;;;;;;0.57;0.57;;;5.80;99.90;;;;;;5019415;28;20207;-92
2022/12/08 13:16:59;;;;;;;2.40;0.60;;;5.90;99.90;;;;;;5030545;28;20348;-92
2022/12/08 13:19:27;;;;;;;0.53;0.53;;;6.00;99.90;;;;;;5035765;28;20215;-90
2022/12/08 13:21:53;;;;;;;1.03;1.03;;;6.00;99.90;;;;;;5035531;28;20272;-90
2022/12/08 13:24:31;;;;;;;1.40;1.33;;;5.90;99.90;;;;;;5019047;28;20286;-89